createdAt,value
2018-09-26T00:02:04.994Z,103139.45
2018-09-26T00:04:34.785Z,103130.85
2018-09-26T00:07:03.120Z,103133.03
2018-09-26T00:09:31.595Z,103121.84
2018-09-26T00:12:00.229Z,103116.45
2018-09-26T00:14:28.456Z,103106.61
2018-09-26T00:16:57.228Z,103104.37
2018-09-26T00:19:25.943Z,103106.47
2018-09-26T00:21:54.615Z,103107.70
2018-09-26T00:24:23.069Z,103103.56
2018-09-26T00:26:59.104Z,103098.20
2018-09-26T00:29:30.116Z,103092.96
2018-09-26T00:31:58.590Z,103093.41
2018-09-26T00:34:26.944Z,103100.28
2018-09-26T00:36:55.609Z,103097.18
2018-09-26T00:39:30.585Z,103096.25
2018-09-26T00:41:59.271Z,103086.75
2018-09-26T00:44:27.781Z,103081.28
2018-09-26T00:46:55.910Z,103065.72
2018-09-26T00:49:24.188Z,103068.73
2018-09-26T00:51:52.634Z,103071.37
2018-09-26T00:54:21.944Z,103072.82
2018-09-26T00:56:50.500Z,103076.45
2018-09-26T00:59:18.917Z,103076.27
2018-09-26T01:01:47.381Z,103063.18
2018-09-26T01:04:16.308Z,103042.61
2018-09-26T01:06:44.768Z,103046.03
2018-09-26T01:09:13.593Z,103047.83
2018-09-26T01:11:42.356Z,103044.09
2018-09-26T01:14:10.772Z,103032.19
2018-09-26T01:16:39.007Z,103031.05
2018-09-26T01:19:08.580Z,103034.50
2018-09-26T01:21:37.356Z,103024.31
2018-09-26T01:24:05.493Z,103028.44
2018-09-26T01:26:34.289Z,103029.71
2018-09-26T01:29:02.493Z,103029.53
2018-09-26T01:31:31.571Z,103035.14
2018-09-26T01:34:00.216Z,103032.20
2018-09-26T01:36:28.677Z,103030.55
2018-09-26T01:38:57.368Z,103030.25
2018-09-26T01:41:25.529Z,103024.12
2018-09-26T01:43:53.981Z,103027.15
2018-09-26T01:46:22.609Z,103027.75
2018-09-26T01:48:51.023Z,103023.89
2018-09-26T01:51:20.025Z,103022.36
2018-09-26T01:53:48.727Z,103029.69
2018-09-26T01:56:17.317Z,103023.78
2018-09-26T01:58:45.443Z,103009.35
2018-09-26T02:01:14.493Z,103011.20
2018-09-26T02:03:42.621Z,103010.80
2018-09-26T02:06:11.052Z,103007.12
2018-09-26T02:08:39.180Z,103007.22
2018-09-26T02:11:08.454Z,103006.77
2018-09-26T02:13:36.908Z,103015.20
2018-09-26T02:16:05.248Z,103013.84
2018-09-26T02:18:33.367Z,103001.22
2018-09-26T02:21:01.503Z,103005.78
2018-09-26T02:23:30.503Z,102989.66
2018-09-26T02:25:59.121Z,102980.62
2018-09-26T02:28:27.580Z,102980.55
2018-09-26T02:30:55.733Z,102988.52
2018-09-26T02:33:24.634Z,103000.63
2018-09-26T02:35:53.336Z,102994.53
2018-09-26T02:38:21.989Z,102999.67
2018-09-26T02:40:50.258Z,103008.71
2018-09-26T02:43:18.547Z,103014.95
2018-09-26T02:45:47.030Z,103005.64
2018-09-26T02:49:18.343Z,103000.43
2018-09-26T02:51:46.509Z,103004.53
2018-09-26T02:54:15.181Z,103008.98
2018-09-26T02:56:43.554Z,103013.44
2018-09-26T02:59:12.248Z,103007.70
2018-09-26T03:01:40.411Z,102995.87
2018-09-26T03:04:08.661Z,102999.66
2018-09-26T03:06:37.293Z,102993.87
2018-09-26T03:09:06.516Z,102988.48
2018-09-26T03:11:35.434Z,102979.21
2018-09-26T03:14:03.801Z,102978.80
2018-09-26T03:16:32.581Z,102967.69
2018-09-26T03:19:01.129Z,102963.76
2018-09-26T03:21:29.640Z,102957.65
2018-09-26T03:23:58.340Z,102951.75
2018-09-26T03:26:26.865Z,102944.72
2018-09-26T03:28:55.265Z,102944.41
2018-09-26T03:31:24.200Z,102932.44
2018-09-26T03:33:52.428Z,102940.09
2018-09-26T03:36:21.207Z,102946.33
2018-09-26T03:38:49.372Z,102939.16
2018-09-26T03:41:17.708Z,102930.61
2018-09-26T03:43:46.124Z,102926.17
2018-09-26T03:46:14.477Z,102933.89
2018-09-26T03:48:42.969Z,102939.27
2018-09-26T03:51:11.410Z,102932.54
2018-09-26T03:53:39.884Z,102940.51
2018-09-26T03:56:09.052Z,102948.23
2018-09-26T03:58:37.390Z,102947.52
2018-09-26T04:01:05.865Z,102938.52
2018-09-26T04:03:34.620Z,102947.10
2018-09-26T04:06:02.758Z,102948.48
2018-09-26T04:08:31.209Z,102935.23
2018-09-26T04:10:59.356Z,102937.06
2018-09-26T04:13:27.761Z,102944.62
2018-09-26T04:15:56.468Z,102937.45
2018-09-26T04:18:26.188Z,102932.27
2018-09-26T04:20:55.449Z,102923.86
2018-09-26T04:23:24.414Z,102926.00
2018-09-26T04:25:52.764Z,102919.69
2018-09-26T04:28:21.828Z,102933.96
2018-09-26T04:30:50.344Z,102928.23
2018-09-26T04:33:18.848Z,102927.75
2018-09-26T04:35:47.308Z,102922.38
2018-09-26T04:38:15.649Z,102926.75
2018-09-26T04:40:44.537Z,102920.00
2018-09-26T04:43:13.040Z,102922.17
2018-09-26T04:45:41.529Z,102928.80
2018-09-26T04:48:09.820Z,102931.83
2018-09-26T04:50:37.991Z,102932.31
2018-09-26T04:53:06.701Z,102939.14
2018-09-26T04:55:35.171Z,102935.66
2018-09-26T04:58:04.292Z,102932.62
2018-09-26T05:00:32.528Z,102934.31
2018-09-26T05:03:01.012Z,102932.97
2018-09-26T05:05:29.804Z,102931.20
2018-09-26T05:07:59.200Z,102933.34
2018-09-26T05:10:27.885Z,102934.76
2018-09-26T05:12:56.374Z,102928.80
2018-09-26T05:15:24.768Z,102935.03
2018-09-26T05:17:52.935Z,102931.83
2018-09-26T05:20:21.685Z,102918.37
2018-09-26T05:22:49.887Z,102914.52
2018-09-26T05:25:18.144Z,102916.66
2018-09-26T05:27:46.959Z,102915.48
2018-09-26T05:30:15.932Z,102905.38
2018-09-26T05:32:44.711Z,102905.99
2018-09-26T05:35:13.161Z,102906.52
2018-09-26T05:37:41.925Z,102898.58
2018-09-26T05:40:10.345Z,102898.65
2018-09-26T05:42:38.597Z,102895.89
2018-09-26T05:45:06.740Z,102905.75
2018-09-26T05:47:35.209Z,102900.75
2018-09-26T05:50:03.566Z,102901.03
2018-09-26T05:52:32.232Z,102893.38
2018-09-26T05:55:01.064Z,102892.55
2018-09-26T05:57:29.220Z,102892.55
2018-09-26T05:59:57.704Z,102885.07
2018-09-26T06:02:26.504Z,102885.14
2018-09-26T06:04:55.262Z,102878.48
2018-09-26T06:07:24.015Z,102880.21
2018-09-26T06:09:52.481Z,102872.05
2018-09-26T06:12:21.169Z,102868.84
2018-09-26T06:14:49.589Z,102860.26
2018-09-26T06:17:18.205Z,102850.27
2018-09-26T06:19:46.679Z,102847.02
2018-09-26T06:22:14.813Z,102840.54
2018-09-26T06:24:43.347Z,102844.88
2018-09-26T06:27:11.889Z,102842.73
2018-09-26T06:29:40.092Z,102843.37
2018-09-26T06:32:09.076Z,102840.09
2018-09-26T06:34:37.773Z,102835.88
2018-09-26T06:37:06.176Z,102841.49
2018-09-26T06:39:34.333Z,102846.20
2018-09-26T06:42:03.104Z,102848.60
2018-09-26T06:44:31.630Z,102832.12
2018-09-26T06:47:00.125Z,102838.06
2018-09-26T06:49:28.692Z,102846.78
2018-09-26T06:51:57.082Z,102844.98
2018-09-26T06:54:25.573Z,102845.65
2018-09-26T06:56:54.104Z,102848.03
2018-09-26T06:59:22.601Z,102849.52
2018-09-26T07:01:50.724Z,102853.66
2018-09-26T07:04:18.961Z,102848.86
2018-09-26T07:06:47.122Z,102849.41
2018-09-26T07:09:15.595Z,102847.45
2018-09-26T07:11:43.933Z,102846.80
2018-09-26T07:14:12.074Z,102855.62
2018-09-26T07:16:40.577Z,102868.09
2018-09-26T07:19:09.581Z,102856.33
2018-09-26T07:21:37.919Z,102861.76
2018-09-26T07:24:06.696Z,102865.47
2018-09-26T07:26:35.360Z,102861.46
2018-09-26T07:29:04.041Z,102855.73
2018-09-26T07:31:32.563Z,102853.23
2018-09-26T07:34:01.051Z,102864.99
2018-09-26T07:36:29.224Z,102863.92
2018-09-26T07:38:57.657Z,102865.46
2018-09-26T07:41:26.085Z,102859.04
2018-09-26T07:43:54.552Z,102855.72
2018-09-26T07:46:23.166Z,102854.42
2018-09-26T07:48:53.384Z,102867.16
2018-09-26T07:51:22.201Z,102849.27
2018-09-26T07:53:51.477Z,102863.50
2018-09-26T07:56:19.863Z,102850.91
2018-09-26T07:58:48.205Z,102847.77
2018-09-26T08:01:16.658Z,102857.72
2018-09-26T08:03:45.377Z,102856.66
2018-09-26T08:06:14.137Z,102857.98
2018-09-26T08:08:42.276Z,102864.97
2018-09-26T08:11:11.030Z,102873.02
2018-09-26T08:13:39.703Z,102872.94
2018-09-26T08:16:09.756Z,102872.61
2018-09-26T08:18:38.053Z,102868.65
2018-09-26T08:21:06.873Z,102873.66
2018-09-26T08:23:35.040Z,102862.75
2018-09-26T08:26:03.161Z,102854.45
2018-09-26T08:28:31.338Z,102857.80
2018-09-26T08:31:00.013Z,102854.27
2018-09-26T08:33:28.316Z,102857.68
2018-09-26T08:35:57.041Z,102865.70
2018-09-26T08:38:25.224Z,102851.31
2018-09-26T08:40:53.645Z,102866.25
2018-09-26T08:43:22.884Z,102856.14
2018-09-26T08:45:51.566Z,102856.84
2018-09-26T08:48:20.181Z,102856.84
2018-09-26T08:50:48.365Z,102859.69
2018-09-26T08:53:16.841Z,102852.73
2018-09-26T08:55:45.309Z,102851.32
2018-09-26T08:58:13.457Z,102854.33
2018-09-26T09:00:41.633Z,102859.59
2018-09-26T09:03:10.436Z,102864.51
2018-09-26T09:05:39.661Z,102857.64
2018-09-26T09:08:09.779Z,102854.55
2018-09-26T09:10:38.576Z,102861.97
2018-09-26T09:13:07.355Z,102865.81
2018-09-26T09:27:43.626Z,102847.16
2018-09-26T09:30:11.932Z,102849.44
2018-09-26T09:32:40.076Z,102847.97
2018-09-26T09:35:08.515Z,102833.63
2018-09-26T09:37:36.860Z,102832.36
2018-09-26T09:40:05.871Z,102830.34
2018-09-26T09:42:34.803Z,102833.66
2018-09-26T09:45:03.453Z,102821.74
2018-09-26T09:47:31.818Z,102813.63
2018-09-26T09:50:00.322Z,102816.80
2018-09-26T09:52:28.673Z,102813.41
2018-09-26T09:54:57.175Z,102811.74
2018-09-26T09:57:25.659Z,102807.77
2018-09-26T09:59:54.136Z,102805.25
2018-09-26T10:02:22.649Z,102812.22
2018-09-26T10:04:53.200Z,102814.45
2018-09-26T10:07:21.972Z,102810.56
2018-09-26T10:09:50.416Z,102810.86
2018-09-26T10:12:18.980Z,102803.39
2018-09-26T10:14:47.100Z,102793.31
2018-09-26T10:17:16.276Z,102799.91
2018-09-26T10:19:46.012Z,102789.20
2018-09-26T10:22:15.856Z,102788.41
2018-09-26T10:24:44.220Z,102786.57
2018-09-26T10:27:12.665Z,102796.59
2018-09-26T10:29:41.408Z,102787.21
2018-09-26T10:32:10.187Z,102775.03
2018-09-26T10:34:39.065Z,102781.13
2018-09-26T10:37:07.445Z,102775.37
2018-09-26T10:39:35.999Z,102764.61
2018-09-26T10:42:04.735Z,102774.97
2018-09-26T10:44:33.745Z,102766.41
2018-09-26T10:47:02.212Z,102767.23
2018-09-26T10:49:30.632Z,102771.05
2018-09-26T10:51:59.293Z,102771.91
2018-09-26T10:54:27.736Z,102760.84
2018-09-26T10:56:56.146Z,102764.38
2018-09-26T10:59:24.659Z,102757.14
2018-09-26T11:01:53.515Z,102767.65
2018-09-26T11:04:22.122Z,102759.03
2018-09-26T11:06:52.099Z,102761.31
2018-09-26T11:09:20.829Z,102757.34
2018-09-26T11:11:49.008Z,102761.72
2018-09-26T11:14:17.545Z,102751.78
2018-09-26T11:16:45.952Z,102749.44
2018-09-26T11:19:14.235Z,102739.01
2018-09-26T11:21:42.695Z,102740.40
2018-09-26T11:24:10.851Z,102734.20
2018-09-26T11:26:39.277Z,102736.98
2018-09-26T11:29:07.821Z,102730.89
2018-09-26T11:31:35.948Z,102731.14
2018-09-26T11:34:04.478Z,102724.69
2018-09-26T11:36:32.805Z,102719.45
2018-09-26T11:39:01.296Z,102719.10
2018-09-26T11:41:29.644Z,102721.08
2018-09-26T11:43:58.667Z,102715.50
2018-09-26T11:46:27.360Z,102711.02
2018-09-26T11:48:56.164Z,102706.39
2018-09-26T11:51:24.280Z,102706.05
2018-09-26T11:53:52.771Z,102702.53
2018-09-26T11:56:21.469Z,102697.34
2018-09-26T11:58:50.340Z,102694.00
2018-09-26T12:01:19.422Z,102709.03
2018-09-26T12:03:47.872Z,102699.70
2018-09-26T12:06:16.384Z,102698.47
2018-09-26T12:08:45.248Z,102693.45
2018-09-26T12:11:13.728Z,102689.84
2018-09-26T12:13:42.156Z,102686.97
2018-09-26T12:16:10.555Z,102685.70
2018-09-26T12:18:39.260Z,102677.87
2018-09-26T12:21:08.032Z,102672.91
2018-09-26T12:23:36.507Z,102668.87
2018-09-26T12:26:04.967Z,102660.91
2018-09-26T12:28:33.600Z,102669.23
2018-09-26T12:31:01.985Z,102661.12
2018-09-26T12:33:30.148Z,102660.30
2018-09-26T12:35:58.260Z,102650.41
2018-09-26T12:38:26.884Z,102646.61
2018-09-26T12:40:55.348Z,102640.91
2018-09-26T12:43:23.990Z,102628.14
2018-09-26T12:45:52.360Z,102618.70
2018-09-26T12:48:20.816Z,102620.41
2018-09-26T12:50:49.484Z,102622.48
2018-09-26T12:53:18.230Z,102621.19
2018-09-26T12:55:46.896Z,102617.74
2018-09-26T12:58:15.781Z,102615.67
2018-09-26T13:00:44.253Z,102608.64
2018-09-26T13:03:12.442Z,102599.53
2018-09-26T13:05:40.760Z,102597.22
2018-09-26T13:08:09.556Z,102600.36
2018-09-26T13:11:01.148Z,102603.47
2018-09-26T13:13:29.627Z,102599.69
2018-09-26T13:15:58.462Z,102597.95
2018-09-26T13:18:26.947Z,102589.13
2018-09-26T13:20:55.425Z,102591.72
2018-09-26T13:23:24.080Z,102580.38
2018-09-26T13:25:53.808Z,102575.42
2018-09-26T13:28:22.588Z,102581.09
2018-09-26T13:30:51.500Z,102581.00
2018-09-26T13:33:20.452Z,102572.94
2018-09-26T13:35:48.852Z,102574.94
2018-09-26T13:38:17.220Z,102562.39
2018-09-26T13:40:45.820Z,102569.80
2018-09-26T13:43:14.216Z,102551.48
2018-09-26T13:45:42.930Z,102551.40
2018-09-26T13:48:11.543Z,102555.16
2018-09-26T13:50:40.445Z,102541.34
2018-09-26T13:53:08.558Z,102548.11
2018-09-26T13:55:36.999Z,102546.08
2018-09-26T13:58:05.954Z,102547.41
2018-09-26T14:00:34.584Z,102539.53
2018-09-26T14:03:03.024Z,102541.64
2018-09-26T14:05:31.378Z,102538.86
2018-09-26T14:07:59.819Z,102538.98
2018-09-26T14:10:28.303Z,102543.41
2018-09-26T14:12:56.662Z,102544.16
2018-09-26T14:15:25.232Z,102534.80
2018-09-26T14:17:53.637Z,102532.44
2018-09-26T14:20:38.303Z,102537.91
2018-09-26T14:23:06.820Z,102527.00
2018-09-26T14:25:35.838Z,102521.60
2018-09-26T14:28:04.707Z,102513.46
2018-09-26T14:30:33.551Z,102509.66
2018-09-26T14:33:02.171Z,102505.69
2018-09-26T14:35:30.640Z,102507.41
2018-09-26T14:37:58.908Z,102523.79
2018-09-26T14:40:27.487Z,102522.64
2018-09-26T14:42:56.040Z,102510.78
2018-09-26T14:45:24.490Z,102522.22
2018-09-26T14:47:52.884Z,102514.69
2018-09-26T14:50:21.872Z,102499.63
2018-09-26T14:52:50.522Z,102512.79
2018-09-26T14:55:19.028Z,102512.91
2018-09-26T14:57:47.492Z,102514.19
2018-09-26T15:00:15.807Z,102503.72
2018-09-26T15:02:44.504Z,102497.73
2018-09-26T15:05:12.779Z,102500.02
2018-09-26T15:07:41.063Z,102497.13
2018-09-26T15:10:09.805Z,102495.73
2018-09-26T15:12:38.528Z,102493.05
2018-09-26T15:15:07.287Z,102492.97
2018-09-26T15:17:35.739Z,102495.02
2018-09-26T15:20:04.995Z,102495.56
2018-09-26T15:22:33.597Z,102492.19
2018-09-26T15:27:35.989Z,102487.22
2018-09-26T15:30:04.845Z,102479.98
2018-09-26T15:32:33.609Z,102475.67
2018-09-26T15:35:02.168Z,102480.25
2018-09-26T15:37:30.620Z,102477.59
2018-09-26T15:39:58.894Z,102479.16
2018-09-26T15:42:27.681Z,102472.92
2018-09-26T15:44:56.335Z,102480.38
2018-09-26T15:47:24.719Z,102475.80
2018-09-26T15:49:53.210Z,102466.09
2018-09-26T15:52:21.742Z,102473.05
2018-09-26T15:54:50.183Z,102469.77
2018-09-26T15:57:18.633Z,102474.34
2018-09-26T15:59:47.136Z,102480.13
2018-09-26T16:02:15.496Z,102485.61
2018-09-26T16:04:44.076Z,102492.62
2018-09-26T16:07:12.865Z,102490.59
2018-09-26T16:09:41.318Z,102489.00
2018-09-26T16:12:10.301Z,102478.61
2018-09-26T16:14:38.951Z,102481.11
2018-09-26T16:17:07.913Z,102478.62
2018-09-26T16:19:36.850Z,102478.86
2018-09-26T16:22:05.599Z,102479.38
2018-09-26T16:24:34.256Z,102485.70
2018-09-26T16:27:02.782Z,102481.05
2018-09-26T16:29:31.095Z,102472.86
2018-09-26T16:31:59.884Z,102478.81
2018-09-26T16:34:28.332Z,102472.88
2018-09-26T16:36:57.096Z,102482.91
2018-09-26T16:39:25.657Z,102479.20
2018-09-26T16:41:54.140Z,102484.66
2018-09-26T16:44:22.546Z,102483.29
2018-09-26T16:46:51.199Z,102486.88
2018-09-26T16:49:19.928Z,102493.35
2018-09-26T16:51:48.365Z,102488.13
2018-09-26T16:54:17.097Z,102492.73
2018-09-26T16:56:45.640Z,102490.75
2018-09-26T16:59:14.273Z,102496.33
2018-09-26T17:01:42.935Z,102484.18
2018-09-26T17:04:11.393Z,102494.60
2018-09-26T17:06:39.904Z,102492.23
2018-09-26T17:09:11.427Z,102489.36
2018-09-26T17:11:39.784Z,102504.23
2018-09-26T17:14:08.062Z,102510.91
2018-09-26T17:16:36.993Z,102510.91
2018-09-26T17:19:05.477Z,102512.17
2018-09-26T17:21:33.972Z,102518.09
2018-09-26T17:24:02.556Z,102510.81
2018-09-26T17:26:30.791Z,102509.31
2018-09-26T17:28:59.443Z,102513.27
2018-09-26T17:31:27.714Z,102509.31
2018-09-26T17:33:56.377Z,102516.12
2018-09-26T17:36:25.016Z,102515.50
2018-09-26T17:38:53.661Z,102522.07
2018-09-26T17:41:21.964Z,102519.06
2018-09-26T17:43:50.090Z,102523.86
2018-09-26T17:46:21.708Z,102522.75
2018-09-26T17:48:52.431Z,102527.56
2018-09-26T17:51:21.030Z,102525.53
2018-09-26T17:53:49.484Z,102528.27
2018-09-26T17:56:17.848Z,102526.96
2018-09-26T17:58:45.960Z,102528.00
2018-09-26T18:01:14.393Z,102529.25
2018-09-26T18:03:43.053Z,102529.40
2018-09-26T18:06:11.491Z,102519.48
2018-09-26T18:08:40.231Z,102524.30
2018-09-26T18:11:08.778Z,102523.08
2018-09-26T18:13:36.936Z,102527.39
2018-09-26T18:16:05.464Z,102525.41
2018-09-26T18:18:33.764Z,102527.56
2018-09-26T18:21:02.484Z,102525.58
2018-09-26T18:23:30.894Z,102522.20
2018-09-26T18:25:59.447Z,102526.52
2018-09-26T18:28:27.817Z,102525.27
2018-09-26T18:30:56.551Z,102528.84
2018-09-26T18:33:24.821Z,102530.68
2018-09-26T18:35:53.760Z,102538.47
2018-09-26T18:38:21.987Z,102544.52
2018-09-26T18:40:50.114Z,102543.52
2018-09-26T18:43:19.070Z,102546.97
2018-09-26T18:45:47.656Z,102543.38
2018-09-26T18:48:16.148Z,102538.54
2018-09-26T18:50:44.830Z,102536.70
2018-09-26T18:53:13.501Z,102536.58
2018-09-26T18:55:42.168Z,102543.03
2018-09-26T18:58:10.788Z,102539.94
2018-09-26T19:00:39.236Z,102543.80
2018-09-26T19:03:08.099Z,102537.97
2018-09-26T19:05:36.641Z,102530.91
2018-09-26T19:08:05.603Z,102539.55
2018-09-26T19:10:33.992Z,102538.19
2018-09-26T19:13:02.569Z,102540.91
2018-09-26T19:15:31.248Z,102540.66
2018-09-26T19:17:59.359Z,102545.22
2018-09-26T19:20:28.052Z,102548.89
2018-09-26T19:22:56.622Z,102544.67
2018-09-26T19:25:25.316Z,102544.39
2018-09-26T19:27:53.779Z,102534.98
2018-09-26T19:30:22.429Z,102541.41
2018-09-26T19:32:51.084Z,102537.70
2018-09-26T19:35:19.691Z,102534.48
2018-09-26T19:37:48.241Z,102525.84
2018-09-26T19:40:16.363Z,102531.28
2018-09-26T19:42:44.468Z,102525.58
2018-09-26T19:45:13.542Z,102526.44
2018-09-26T19:47:41.992Z,102524.09
2018-09-26T19:50:10.499Z,102522.73
2018-09-26T19:52:38.600Z,102526.05
2018-09-26T19:55:07.024Z,102521.12
2018-09-26T19:57:35.152Z,102526.66
2018-09-26T20:00:03.732Z,102523.45
2018-09-26T20:02:32.453Z,102528.52
2018-09-26T20:05:00.576Z,102535.58
2018-09-26T20:07:29.352Z,102538.22
2018-09-26T20:09:57.524Z,102538.94
2018-09-26T20:12:26.305Z,102529.92
2018-09-26T20:15:34.633Z,102530.68
2018-09-26T20:18:07.689Z,102533.75
2018-09-26T20:20:37.580Z,102535.84
2018-09-26T20:23:06.350Z,102532.22
2018-09-26T20:25:35.292Z,102537.41
2018-09-26T20:28:03.721Z,102539.50
2018-09-26T20:30:32.399Z,102537.63
2018-09-26T20:33:01.171Z,102544.64
2018-09-26T20:35:29.601Z,102545.75
2018-09-26T20:37:58.108Z,102547.41
2018-09-26T20:40:26.784Z,102542.19
2018-09-26T20:42:55.179Z,102548.61
2018-09-26T20:45:24.665Z,102556.13
2018-09-26T20:47:53.981Z,102547.20
2018-09-26T20:50:22.263Z,102549.92
2018-09-26T20:52:51.448Z,102543.11
2018-09-26T20:55:19.916Z,102548.64
2018-09-26T20:57:48.552Z,102551.27
2018-09-26T21:00:17.194Z,102549.78
2018-09-26T21:02:45.601Z,102541.23
2018-09-26T21:05:14.576Z,102539.23
2018-09-26T21:07:42.680Z,102548.88
2018-09-26T21:10:11.643Z,102547.61
2018-09-26T21:12:40.252Z,102552.80
2018-09-26T21:15:08.844Z,102557.47
2018-09-26T21:17:37.688Z,102561.93
2018-09-26T21:20:06.267Z,102558.23
2018-09-26T21:22:34.716Z,102558.36
2018-09-26T21:25:03.473Z,102558.23
2018-09-26T21:27:31.916Z,102556.61
2018-09-26T21:30:00.523Z,102554.88
2018-09-26T21:32:28.979Z,102556.61
2018-09-26T21:34:57.540Z,102551.05
2018-09-26T21:37:25.840Z,102557.38
2018-09-26T21:39:54.245Z,102556.23
2018-09-26T21:42:22.687Z,102549.94
2018-09-26T21:44:50.799Z,102547.22
2018-09-26T21:47:19.239Z,102541.27
2018-09-26T21:49:47.420Z,102542.16
2018-09-26T21:52:15.868Z,102548.95
2018-09-26T21:54:44.724Z,102559.33
2018-09-26T21:57:13.164Z,102560.57
2018-09-26T21:59:41.469Z,102556.48
2018-09-26T22:02:10.348Z,102556.61
2018-09-26T22:04:38.786Z,102555.76
2018-09-26T22:07:06.899Z,102552.36
2018-09-26T22:09:35.288Z,102557.80
2018-09-26T22:12:04.064Z,102558.48
2018-09-26T22:14:32.828Z,102555.76
2018-09-26T22:17:01.569Z,102563.03
2018-09-26T22:19:29.676Z,102560.52
2018-09-26T22:21:58.141Z,102558.05
2018-09-26T22:24:26.340Z,102550.48
2018-09-26T22:26:55.072Z,102559.52
2018-09-26T22:29:23.492Z,102559.73
2018-09-26T22:31:51.944Z,102554.89
2018-09-26T22:34:20.656Z,102549.95
2018-09-26T22:36:49.112Z,102554.89
2018-09-26T22:39:17.726Z,102564.52
2018-09-26T22:41:46.368Z,102562.66
2018-09-26T22:44:14.866Z,102559.86
2018-09-26T22:46:43.324Z,102553.70
2018-09-26T22:49:11.870Z,102552.55
2018-09-26T22:51:39.993Z,102551.40
2018-09-26T22:54:09.046Z,102552.88
2018-09-26T22:56:37.656Z,102547.65
2018-09-26T22:59:06.165Z,102544.58
2018-09-26T23:01:34.459Z,102539.61
2018-09-26T23:04:06.124Z,102535.92
2018-09-26T23:06:37.705Z,102543.31
2018-09-26T23:09:08.460Z,102538.97
2018-09-26T23:11:37.031Z,102537.73
2018-09-26T23:14:05.453Z,102530.75
2018-09-26T23:16:33.887Z,102542.34
2018-09-26T23:19:02.239Z,102536.91
2018-09-26T23:21:31.104Z,102531.84
2018-09-26T23:24:03.975Z,102529.90
2018-09-26T23:26:32.138Z,102531.64
2018-09-26T23:29:01.080Z,102524.20
2018-09-26T23:31:29.520Z,102518.47
2018-09-26T23:33:58.119Z,102520.45
2018-09-26T23:36:26.904Z,102517.73
2018-09-26T23:38:55.289Z,102513.27
2018-09-26T23:41:24.001Z,102512.89
2018-09-26T23:43:52.128Z,102506.47
2018-09-26T23:46:20.852Z,102510.16
2018-09-26T23:48:48.968Z,102505.20
2018-09-26T23:51:17.407Z,102504.73
2018-09-26T23:53:46.089Z,102506.47
2018-09-26T23:56:14.532Z,102502.16
2018-09-26T23:58:42.988Z,102509.84
